Sealston, Virginia
Current Conditions -  °F | °C
As of 4:15 PM on Monday 22 Dec 2014 (Local Time) from KEZF Reporting Station
Drizzle Drizzle  
Wind Chill: 32°   Ceiling: 500
Heat Index: 36°   Visibility: 1.5mi
Dew Point: 36°   Wind: 5mph
Humidity: 100%   Direction: 350°N
Pressure: 30.14"   Gusts: NA
Location:  38.26°N, 77.33°W
Report Text: KEZF 222115Z AUTO 35004KT 1 1/2SM +DZ OVC005 02/02 A3014 RMK AO2 T00220022
Loading
Personal Weather Stations






























Interactive Weather Map New forecast layout! Learn more

10-Day Weather Forecast

Advertisements
Track Severe Weather on mobile